Time;durP1;ratioP1;P1;durP2;ratioP2;P2;SDS_P1;SDS_P2;PMS_P1;PMS_P2;Temp;Humidity;BMP_temperature;BMP_pressure;BME280_temperature;BME280_humidity;BME280_pressure;Samples;Min_cycle;Max_cycle;Signal;HPM_P1;HPM_P2
2021/12/06 00:01:40;;;;;;;10.40;5.03;;;;;;;;;;5054667;28;20096;-71
2021/12/06 00:04:08;;;;;;;10.50;5.20;;;;;;;;;;5054406;28;20029;-71
2021/12/06 00:06:37;;;;;;;8.15;4.68;;;;;;;;;;5054661;28;20029;-71
2021/12/06 00:09:05;;;;;;;10.32;4.97;;;;;;;;;;5054471;28;20071;-71
2021/12/06 00:11:31;;;;;;;9.13;5.15;;;;;;;;;;5054042;28;20501;-71
2021/12/06 00:13:57;;;;;;;8.50;4.75;;;;;;;;;;5053597;28;20017;-71
2021/12/06 00:16:24;;;;;;;10.18;5.38;;;;;;;;;;5054942;28;20043;-71
2021/12/06 00:18:51;;;;;;;8.85;4.25;;;;;;;;;;5054040;28;20032;-71
2021/12/06 00:21:18;;;;;;;8.88;4.45;;;;;;;;;;5054406;28;20045;-71
2021/12/06 00:23:44;;;;;;;11.77;4.72;;;;;;;;;;5054308;28;20029;-71
2021/12/06 00:26:10;;;;;;;9.13;4.57;;;;;;;;;;5053835;28;20096;-71
2021/12/06 00:28:37;;;;;;;9.07;5.22;;;;;;;;;;5054113;28;20033;-71
2021/12/06 00:31:04;;;;;;;9.50;4.75;;;;;;;;;;5053738;28;20052;-71
2021/12/06 00:33:30;;;;;;;7.65;4.53;;;;;;;;;;5054085;28;20032;-71
2021/12/06 00:36:03;;;;;;;7.18;3.92;;;;;;;;;;5054142;28;20037;-71
2021/12/06 00:38:29;;;;;;;9.73;3.97;;;;;;;;;;5053961;28;20028;-71
2021/12/06 00:40:55;;;;;;;7.93;4.03;;;;;;;;;;5054218;28;20060;-71
2021/12/06 00:43:21;;;;;;;6.90;3.72;;;;;;;;;;5053995;28;20028;-71
2021/12/06 00:45:48;;;;;;;11.65;4.18;;;;;;;;;;5053883;28;20480;-71
2021/12/06 00:48:14;;;;;;;11.52;5.40;;;;;;;;;;5053955;28;20025;-71
2021/12/06 00:50:41;;;;;;;7.65;3.60;;;;;;;;;;5054008;28;20037;-71
2021/12/06 00:53:08;;;;;;;8.65;4.40;;;;;;;;;;5053647;28;20126;-71
2021/12/06 00:55:34;;;;;;;11.13;4.15;;;;;;;;;;5054125;28;20108;-71
2021/12/06 00:58:01;;;;;;;9.57;4.32;;;;;;;;;;5053754;28;20477;-71
2021/12/06 01:00:39;;;;;;;8.05;4.05;;;;;;;;;;5053239;28;20096;-71
2021/12/06 01:03:07;;;;;;;9.77;3.78;;;;;;;;;;5053587;28;20021;-70
2021/12/06 01:05:33;;;;;;;9.23;3.97;;;;;;;;;;5053639;28;20385;-71
2021/12/06 01:08:00;;;;;;;10.15;4.30;;;;;;;;;;5053201;28;20051;-71
2021/12/06 01:10:27;;;;;;;8.35;3.90;;;;;;;;;;5053474;28;20039;-71
2021/12/06 01:12:53;;;;;;;8.60;4.43;;;;;;;;;;5053661;28;20025;-72
2021/12/06 01:15:19;;;;;;;12.63;4.50;;;;;;;;;;5053080;28;20036;-71
2021/12/06 01:17:46;;;;;;;12.20;4.28;;;;;;;;;;5053592;28;20031;-71
2021/12/06 01:20:18;;;;;;;9.60;4.60;;;;;;;;;;5053183;28;20055;-71
2021/12/06 01:22:50;;;;;;;8.30;4.28;;;;;;;;;;5035588;28;20028;-71
2021/12/06 01:25:30;;;;;;;8.67;4.07;;;;;;;;;;5053424;28;20090;-71
2021/12/06 01:39:17;;;;;;;8.70;3.03;;;;;;;;;;5053258;28;20040;-71
2021/12/06 01:41:51;;;;;;;8.45;3.55;;;;;;;;;;5052864;28;20017;-71
2021/12/06 01:44:28;;;;;;;7.72;3.40;;;;;;;;;;5053193;28;20029;-71
2021/12/06 01:46:59;;;;;;;7.53;3.35;;;;;;;;;;5053022;28;20021;-71
2021/12/06 01:49:27;;;;;;;8.73;3.60;;;;;;;;;;5052843;28;20033;-71
2021/12/06 01:51:54;;;;;;;7.10;3.35;;;;;;;;;;5053286;28;20041;-71
2021/12/06 01:54:21;;;;;;;8.65;3.67;;;;;;;;;;5053185;28;20020;-71
2021/12/06 01:56:48;;;;;;;7.63;3.17;;;;;;;;;;5052872;28;20048;-71
2021/12/06 01:59:15;;;;;;;8.30;3.95;;;;;;;;;;5052975;28;20055;-70
2021/12/06 02:01:41;;;;;;;8.65;4.57;;;;;;;;;;5053276;28;20542;-70
2021/12/06 02:04:08;;;;;;;8.98;4.03;;;;;;;;;;5052655;28;20053;-71
2021/12/06 02:06:35;;;;;;;9.85;4.25;;;;;;;;;;5053104;28;20033;-71
2021/12/06 02:09:01;;;;;;;8.45;4.10;;;;;;;;;;5052903;28;20083;-71
2021/12/06 02:11:31;;;;;;;9.43;4.60;;;;;;;;;;5034641;28;20481;-71
2021/12/06 02:14:08;;;;;;;8.13;3.80;;;;;;;;;;5053114;28;20045;-71
2021/12/06 02:16:43;;;;;;;7.72;4.07;;;;;;;;;;5052592;28;20385;-71
2021/12/06 02:19:10;;;;;;;8.13;3.67;;;;;;;;;;5052837;28;20029;-71
2021/12/06 02:21:40;;;;;;;8.73;4.25;;;;;;;;;;5052849;28;20100;-71
2021/12/06 02:24:09;;;;;;;11.68;4.03;;;;;;;;;;5052565;28;20369;-71
2021/12/06 02:26:36;;;;;;;7.45;3.55;;;;;;;;;;5052979;28;20381;-71
2021/12/06 02:29:04;;;;;;;8.07;3.83;;;;;;;;;;5052567;28;20045;-71
2021/12/06 02:31:30;;;;;;;6.07;3.15;;;;;;;;;;5052492;28;20075;-71
2021/12/06 02:33:56;;;;;;;6.88;2.65;;;;;;;;;;5053045;28;20035;-71
2021/12/06 02:36:23;;;;;;;6.40;2.92;;;;;;;;;;5053409;28;20028;-71
2021/12/06 02:38:49;;;;;;;8.65;4.18;;;;;;;;;;5055967;28;20428;-71
2021/12/06 02:41:18;;;;;;;8.90;2.90;;;;;;;;;;5056235;28;20363;-71
2021/12/06 02:43:45;;;;;;;9.40;3.70;;;;;;;;;;5056279;28;20013;-71
2021/12/06 02:46:11;;;;;;;6.93;3.20;;;;;;;;;;5055843;28;20032;-70
2021/12/06 02:48:37;;;;;;;6.63;2.92;;;;;;;;;;5056117;28;20492;-71
2021/12/06 02:51:06;;;;;;;7.13;3.05;;;;;;;;;;5056117;28;20041;-71
2021/12/06 02:53:33;;;;;;;4.97;2.22;;;;;;;;;;5055691;28;20047;-71
2021/12/06 02:56:04;;;;;;;5.60;2.38;;;;;;;;;;5056425;28;20029;-71
2021/12/06 03:01:03;;;;;;;7.10;2.80;;;;;;;;;;5055871;28;20034;-71
2021/12/06 03:03:29;;;;;;;5.68;2.55;;;;;;;;;;5055844;28;20071;-71
2021/12/06 03:05:56;;;;;;;6.55;2.58;;;;;;;;;;5055434;28;20033;-71
2021/12/06 03:08:35;;;;;;;3.85;2.30;;;;;;;;;;5056195;28;20021;-71
2021/12/06 03:11:01;;;;;;;4.72;2.78;;;;;;;;;;5055743;28;20100;-71
2021/12/06 03:13:27;;;;;;;7.15;2.80;;;;;;;;;;5055321;28;20024;-71
2021/12/06 03:15:54;;;;;;;6.78;2.80;;;;;;;;;;5055638;28;20025;-71
2021/12/06 03:18:20;;;;;;;7.28;3.15;;;;;;;;;;5055564;28;20018;-71
2021/12/06 03:20:46;;;;;;;7.82;3.28;;;;;;;;;;5055180;28;20020;-71
2021/12/06 03:23:12;;;;;;;4.63;2.67;;;;;;;;;;5037641;28;20029;-71
2021/12/06 03:25:38;;;;;;;6.93;3.10;;;;;;;;;;5055514;28;20071;-71
2021/12/06 03:28:04;;;;;;;5.93;2.67;;;;;;;;;;5054821;28;20025;-70
2021/12/06 03:30:31;;;;;;;6.78;3.28;;;;;;;;;;5055337;28;20029;-71
2021/12/06 03:32:57;;;;;;;3.60;2.33;;;;;;;;;;5055591;28;20587;-71
2021/12/06 03:35:23;;;;;;;6.25;2.67;;;;;;;;;;5054924;28;20114;-71
2021/12/06 03:37:49;;;;;;;7.07;2.97;;;;;;;;;;5055304;28;20043;-71
2021/12/06 03:40:15;;;;;;;6.80;3.03;;;;;;;;;;5055947;28;20029;-71
2021/12/06 03:42:42;;;;;;;5.88;2.83;;;;;;;;;;5054926;28;20477;-71
2021/12/06 03:45:09;;;;;;;6.38;2.92;;;;;;;;;;5055164;28;20040;-71
2021/12/06 03:47:35;;;;;;;6.43;2.88;;;;;;;;;;5037203;28;20021;-71
2021/12/06 03:50:02;;;;;;;9.13;3.00;;;;;;;;;;5054607;28;20089;-71
2021/12/06 03:52:28;;;;;;;8.40;2.80;;;;;;;;;;5055000;28;20096;-71
2021/12/06 03:54:55;;;;;;;4.75;2.47;;;;;;;;;;5054600;28;20059;-71
2021/12/06 03:57:22;;;;;;;6.30;2.58;;;;;;;;;;5054896;28;20032;-71
2021/12/06 03:59:49;;;;;;;4.95;3.05;;;;;;;;;;5054892;28;20032;-71
2021/12/06 04:02:16;;;;;;;7.07;3.22;;;;;;;;;;5054702;28;20029;-71
2021/12/06 04:04:43;;;;;;;5.95;2.78;;;;;;;;;;5054988;28;20108;-71
2021/12/06 04:07:09;;;;;;;5.07;2.30;;;;;;;;;;5055046;28;20488;-70
2021/12/06 04:09:36;;;;;;;4.75;2.55;;;;;;;;;;5054212;28;20086;-71
2021/12/06 04:12:03;;;;;;;7.65;3.17;;;;;;;;;;5054632;28;20017;-71
2021/12/06 04:14:29;;;;;;;6.80;2.97;;;;;;;;;;5054511;28;20172;-71
2021/12/06 04:16:55;;;;;;;5.15;2.60;;;;;;;;;;5054104;28;20021;-71
2021/12/06 04:19:21;;;;;;;7.03;3.40;;;;;;;;;;5054637;28;20025;-71
2021/12/06 04:21:48;;;;;;;7.32;3.75;;;;;;;;;;5054500;28;20092;-71
2021/12/06 04:24:14;;;;;;;18.83;7.90;;;;;;;;;;5054034;28;20120;-71
2021/12/06 04:26:41;;;;;;;17.75;7.75;;;;;;;;;;5054351;28;20500;-71
2021/12/06 04:29:08;;;;;;;14.43;6.55;;;;;;;;;;5054011;28;20041;-71
2021/12/06 04:31:35;;;;;;;11.55;4.70;;;;;;;;;;5053872;28;20091;-71
2021/12/06 04:34:01;;;;;;;9.98;4.32;;;;;;;;;;5054163;28;20108;-71
2021/12/06 04:36:28;;;;;;;11.02;5.13;;;;;;;;;;5054317;28;20021;-71
2021/12/06 04:38:54;;;;;;;8.93;4.45;;;;;;;;;;5053720;28;20377;-71
2021/12/06 04:41:20;;;;;;;8.95;3.78;;;;;;;;;;5054092;28;20017;-71
2021/12/06 04:43:47;;;;;;;9.27;4.63;;;;;;;;;;5054032;28;20048;-71
2021/12/06 04:46:13;;;;;;;11.55;5.63;;;;;;;;;;5053655;28;20431;-71
2021/12/06 04:48:39;;;;;;;9.10;4.53;;;;;;;;;;5053910;28;20024;-70
2021/12/06 04:51:06;;;;;;;10.32;4.15;;;;;;;;;;5053541;28;20035;-71
2021/12/06 04:53:36;;;;;;;10.18;3.95;;;;;;;;;;5036092;28;20025;-71
2021/12/06 04:56:05;;;;;;;6.57;3.42;;;;;;;;;;5053802;28;20028;-71
2021/12/06 04:58:32;;;;;;;9.75;3.67;;;;;;;;;;5053616;28;20017;-71
2021/12/06 05:01:01;;;;;;;11.73;4.93;;;;;;;;;;5053353;28;20029;-71
2021/12/06 05:03:28;;;;;;;9.57;3.83;;;;;;;;;;5053791;28;20025;-71
2021/12/06 05:05:56;;;;;;;9.63;5.28;;;;;;;;;;5053367;28;20039;-71
2021/12/06 05:08:25;;;;;;;15.75;8.35;;;;;;;;;;5053663;28;20450;-71
2021/12/06 05:10:51;;;;;;;9.00;5.35;;;;;;;;;;5053521;28;20564;-71
2021/12/06 05:13:18;;;;;;;11.25;5.32;;;;;;;;;;5053177;28;20025;-71
2021/12/06 05:15:44;;;;;;;9.18;4.40;;;;;;;;;;5053565;28;20448;-70
2021/12/06 05:18:10;;;;;;;8.63;4.13;;;;;;;;;;5053483;28;20470;-71
2021/12/06 05:20:37;;;;;;;10.07;4.55;;;;;;;;;;5053040;28;20108;-72
2021/12/06 05:23:04;;;;;;;9.82;4.57;;;;;;;;;;5053383;28;20028;-71
2021/12/06 05:25:30;;;;;;;13.65;4.78;;;;;;;;;;5053516;28;20109;-71
2021/12/06 05:27:59;;;;;;;11.52;5.07;;;;;;;;;;5052943;28;20047;-70
2021/12/06 05:30:26;;;;;;;8.60;4.65;;;;;;;;;;5053113;28;20120;-71
2021/12/06 05:32:53;;;;;;;8.40;3.88;;;;;;;;;;5053332;28;20028;-71
2021/12/06 05:35:19;;;;;;;7.80;4.15;;;;;;;;;;5052913;28;20130;-71
2021/12/06 05:37:47;;;;;;;12.07;3.70;;;;;;;;;;5053309;28;20461;-71
2021/12/06 05:40:21;;;;;;;10.40;5.40;;;;;;;;;;5053134;28;20120;-71
2021/12/06 05:42:48;;;;;;;12.23;5.85;;;;;;;;;;5053327;28;20031;-71
2021/12/06 05:45:15;;;;;;;10.70;5.05;;;;;;;;;;5053122;28;20037;-71
2021/12/06 05:47:42;;;;;;;8.80;4.60;;;;;;;;;;5052686;28;20033;-71
2021/12/06 05:50:08;;;;;;;9.13;3.60;;;;;;;;;;5053644;28;20068;-71
2021/12/06 05:52:35;;;;;;;10.48;5.70;;;;;;;;;;5053278;28;20028;-71
2021/12/06 05:55:01;;;;;;;10.15;4.93;;;;;;;;;;5052597;28;20477;-71
2021/12/06 05:57:27;;;;;;;6.75;3.83;;;;;;;;;;5053183;28;20052;-71
2021/12/06 05:59:54;;;;;;;8.10;3.72;;;;;;;;;;5053364;28;20025;-71
2021/12/06 06:02:20;;;;;;;6.80;3.58;;;;;;;;;;5052471;28;20025;-71
2021/12/06 06:04:46;;;;;;;8.93;4.47;;;;;;;;;;5035231;28;20104;-72
2021/12/06 06:07:12;;;;;;;8.77;3.95;;;;;;;;;;5052968;28;20473;-71
2021/12/06 06:09:38;;;;;;;6.97;3.67;;;;;;;;;;5052332;28;20040;-70
2021/12/06 06:12:05;;;;;;;16.55;9.35;;;;;;;;;;5054797;28;20044;-71
2021/12/06 06:14:32;;;;;;;20.23;11.50;;;;;;;;;;5056720;28;20099;-70
2021/12/06 06:17:07;;;;;;;13.23;5.45;;;;;;;;;;5056297;28;20025;-70
2021/12/06 06:19:34;;;;;;;15.18;7.63;;;;;;;;;;5056722;28;20048;-70
2021/12/06 06:22:00;;;;;;;15.02;7.78;;;;;;;;;;5055116;28;20026;-69
2021/12/06 06:24:26;;;;;;;13.13;6.80;;;;;;;;;;5055501;28;20016;-70
2021/12/06 06:26:56;;;;;;;10.23;5.45;;;;;;;;;;5055902;28;20071;-70
2021/12/06 06:29:26;;;;;;;22.65;9.88;;;;;;;;;;5056293;28;20045;-70
2021/12/06 06:31:53;;;;;;;15.00;8.43;;;;;;;;;;5038365;28;20029;-69
2021/12/06 06:34:19;;;;;;;8.35;4.15;;;;;;;;;;5038134;28;20071;-70
2021/12/06 06:36:46;;;;;;;7.88;4.07;;;;;;;;;;5055558;28;20385;-70
2021/12/06 06:39:12;;;;;;;5.47;2.60;;;;;;;;;;5056167;28;20017;-69
2021/12/06 06:41:38;;;;;;;7.05;3.47;;;;;;;;;;5054452;28;20021;-70
2021/12/06 06:44:05;;;;;;;7.30;3.70;;;;;;;;;;5055704;28;20389;-71
2021/12/06 06:46:32;;;;;;;7.70;3.28;;;;;;;;;;5055975;28;20494;-69
2021/12/06 06:48:58;;;;;;;9.27;4.20;;;;;;;;;;5055953;28;20470;-70
2021/12/06 06:51:27;;;;;;;6.40;3.38;;;;;;;;;;5038803;28;20052;-69
2021/12/06 06:53:53;;;;;;;8.25;3.75;;;;;;;;;;5053703;28;20052;-69
2021/12/06 06:56:19;;;;;;;11.90;6.00;;;;;;;;;;5053286;28;20076;-69
2021/12/06 06:58:46;;;;;;;13.07;6.72;;;;;;;;;;5053058;28;20025;-69
2021/12/06 07:01:12;;;;;;;9.43;4.90;;;;;;;;;;5053615;28;20055;-69
2021/12/06 07:03:38;;;;;;;22.13;11.35;;;;;;;;;;5053930;28;20036;-69
2021/12/06 07:06:04;;;;;;;14.98;6.90;;;;;;;;;;5052939;28;20096;-70
2021/12/06 07:08:31;;;;;;;13.75;6.50;;;;;;;;;;5053712;28;20036;-70
2021/12/06 07:10:57;;;;;;;18.25;10.27;;;;;;;;;;5054086;28;20476;-71
2021/12/06 07:13:27;;;;;;;19.27;10.95;;;;;;;;;;5067986;28;20091;-70
2021/12/06 07:15:53;;;;;;;21.05;12.77;;;;;;;;;;5074126;28;20044;-70
2021/12/06 07:18:21;;;;;;;46.92;31.80;;;;;;;;;;5073876;28;20099;-70
2021/12/06 07:20:48;;;;;;;13.27;7.30;;;;;;;;;;5073296;28;20108;-69
2021/12/06 07:23:14;;;;;;;11.75;7.72;;;;;;;;;;5072415;28;20024;-70
2021/12/06 07:25:40;;;;;;;15.27;9.60;;;;;;;;;;5068784;28;20086;-70
2021/12/06 07:28:08;;;;;;;12.93;6.97;;;;;;;;;;5052972;28;20017;-70
2021/12/06 07:30:34;;;;;;;15.45;10.85;;;;;;;;;;5051304;28;20118;-70
2021/12/06 07:33:00;;;;;;;21.25;12.07;;;;;;;;;;5052960;28;20021;-68
2021/12/06 07:35:29;;;;;;;16.42;10.80;;;;;;;;;;5051698;28;20552;-70
2021/12/06 07:37:55;;;;;;;13.45;7.57;;;;;;;;;;5052924;28;20021;-69
2021/12/06 07:40:22;;;;;;;8.65;5.40;;;;;;;;;;5052666;28;20027;-69
2021/12/06 07:42:48;;;;;;;13.27;7.28;;;;;;;;;;5053025;28;20348;-68
2021/12/06 07:45:15;;;;;;;10.32;5.20;;;;;;;;;;5053858;28;20104;-68
2021/12/06 07:47:42;;;;;;;30.08;14.77;;;;;;;;;;5053183;28;20032;-69
2021/12/06 07:50:09;;;;;;;21.33;9.70;;;;;;;;;;5052013;28;20392;-69
2021/12/06 07:52:36;;;;;;;23.15;11.75;;;;;;;;;;5052772;28;20024;-69
2021/12/06 07:55:04;;;;;;;21.80;10.05;;;;;;;;;;5052315;28;20051;-70
2021/12/06 07:57:30;;;;;;;43.58;21.23;;;;;;;;;;5050289;28;20480;-69
2021/12/06 07:59:57;;;;;;;44.30;21.02;;;;;;;;;;5052424;28;20025;-68
2021/12/06 08:02:23;;;;;;;47.40;19.60;;;;;;;;;;5049768;28;20481;-69
2021/12/06 08:04:59;;;;;;;27.25;12.93;;;;;;;;;;5051062;28;20033;-67
2021/12/06 08:07:25;;;;;;;25.52;11.52;;;;;;;;;;5051706;28;20021;-68
2021/12/06 08:09:53;;;;;;;22.13;11.07;;;;;;;;;;5050231;28;20485;-69
2021/12/06 08:12:19;;;;;;;27.35;13.52;;;;;;;;;;5034058;28;20064;-69
2021/12/06 08:14:45;;;;;;;66.03;39.10;;;;;;;;;;5051926;28;20025;-68
2021/12/06 08:17:14;;;;;;;23.08;12.70;;;;;;;;;;5051908;28;20044;-68
2021/12/06 08:19:41;;;;;;;12.73;6.95;;;;;;;;;;5050207;28;20075;-68
2021/12/06 08:22:07;;;;;;;24.75;13.77;;;;;;;;;;5049416;28;20358;-68
2021/12/06 08:24:33;;;;;;;12.30;6.97;;;;;;;;;;5048819;28;20021;-69
2021/12/06 08:26:59;;;;;;;11.80;6.45;;;;;;;;;;5048515;28;20027;-69
2021/12/06 08:29:27;;;;;;;28.83;15.27;;;;;;;;;;5049675;28;20045;-68
2021/12/06 08:31:53;;;;;;;15.57;7.70;;;;;;;;;;5049025;28;20013;-69
2021/12/06 08:34:19;;;;;;;16.35;10.10;;;;;;;;;;5048297;28;20057;-69
2021/12/06 08:36:45;;;;;;;24.02;10.68;;;;;;;;;;5050320;28;20025;-69
2021/12/06 08:39:12;;;;;;;21.70;9.52;;;;;;;;;;5051562;28;20021;-69
2021/12/06 08:41:38;;;;;;;13.82;6.90;;;;;;;;;;5051770;28;20025;-69
2021/12/06 08:44:04;;;;;;;12.43;6.22;;;;;;;;;;5051745;28;20025;-69
2021/12/06 08:46:32;;;;;;;15.73;6.15;;;;;;;;;;5051961;28;20738;-69
2021/12/06 08:49:00;;;;;;;12.15;6.93;;;;;;;;;;5065725;28;20062;-68
2021/12/06 08:51:32;;;;;;;10.50;5.18;;;;;;;;;;5053195;28;20526;-69
2021/12/06 08:54:00;;;;;;;13.02;7.07;;;;;;;;;;5071838;28;20465;-69
2021/12/06 08:56:27;;;;;;;7.25;3.95;;;;;;;;;;5071842;28;20384;-69
2021/12/06 08:58:53;;;;;;;10.55;5.15;;;;;;;;;;5071231;28;20099;-68
2021/12/06 09:01:20;;;;;;;9.43;4.63;;;;;;;;;;5071985;28;20024;-70
2021/12/06 09:03:46;;;;;;;13.85;6.80;;;;;;;;;;5037498;28;20108;-70
2021/12/06 09:06:12;;;;;;;13.85;7.32;;;;;;;;;;5048631;28;20036;-70
2021/12/06 09:08:41;;;;;;;10.35;5.70;;;;;;;;;;5050027;28;20025;-70
2021/12/06 09:11:07;;;;;;;17.75;7.22;;;;;;;;;;5051144;28;20033;-69
2021/12/06 09:13:33;;;;;;;17.10;8.40;;;;;;;;;;5050150;28;20017;-70
2021/12/06 09:16:02;;;;;;;18.30;8.65;;;;;;;;;;5032216;28;20031;-70
2021/12/06 09:18:30;;;;;;;20.05;10.65;;;;;;;;;;5050846;28;20017;-69
2021/12/06 09:20:58;;;;;;;16.35;8.48;;;;;;;;;;5030631;28;20025;-70
2021/12/06 09:23:24;;;;;;;11.90;5.40;;;;;;;;;;5050176;28;20025;-70
2021/12/06 09:25:51;;;;;;;14.57;8.00;;;;;;;;;;5050416;28;20021;-70
2021/12/06 09:28:18;;;;;;;11.93;7.07;;;;;;;;;;5051867;28;20428;-70
2021/12/06 09:30:44;;;;;;;12.75;7.25;;;;;;;;;;5050606;28;20393;-67
2021/12/06 09:33:13;;;;;;;15.23;9.07;;;;;;;;;;5051066;28;20500;-69
2021/12/06 09:35:41;;;;;;;11.88;5.72;;;;;;;;;;5052439;28;20033;-69
2021/12/06 09:38:08;;;;;;;11.57;6.55;;;;;;;;;;5052443;28;20020;-69
2021/12/06 09:40:36;;;;;;;11.82;7.15;;;;;;;;;;5051523;28;20036;-69
2021/12/06 09:43:03;;;;;;;16.10;8.98;;;;;;;;;;5052590;28;20456;-69
2021/12/06 09:45:31;;;;;;;9.70;4.65;;;;;;;;;;5052869;28;20446;-69
2021/12/06 09:48:22;;;;;;;12.93;6.07;;;;;;;;;;5104081;27;20428;-69
2021/12/06 09:50:55;;;;;;;9.93;5.18;;;;;;;;;;5109738;28;20505;-69
2021/12/06 09:53:24;;;;;;;11.07;5.55;;;;;;;;;;5108483;28;20024;-69
2021/12/06 09:55:53;;;;;;;15.27;6.88;;;;;;;;;;5109164;28;20063;-69
2021/12/06 09:58:19;;;;;;;16.65;5.95;;;;;;;;;;5109502;28;20541;-70
2021/12/06 10:00:48;;;;;;;9.80;4.75;;;;;;;;;;5109545;28;20028;-70
2021/12/06 10:04:07;;;;;;;11.48;5.75;;;;;;;;;;5110359;27;20443;-69
2021/12/06 10:07:02;;;;;;;11.07;5.10;;;;;;;;;;5110376;27;20470;-68
2021/12/06 10:11:50;;;;;;;10.50;5.03;;;;;;;;;;5110011;27;20443;-69
2021/12/06 10:14:16;;;;;;;11.77;7.00;;;;;;;;;;5125630;28;20066;-69
2021/12/06 10:19:35;;;;;;;10.55;5.22;;;;;;;;;;5110548;27;20397;-69
2021/12/06 10:22:01;;;;;;;10.98;5.90;;;;;;;;;;5109962;28;20051;-69
2021/12/06 10:24:29;;;;;;;20.08;6.40;;;;;;;;;;5119669;28;20019;-68
2021/12/06 10:27:06;;;;;;;11.60;6.72;;;;;;;;;;5130814;28;20058;-72
2021/12/06 10:29:38;;;;;;;11.48;5.82;;;;;;;;;;5130279;28;20045;-70
2021/12/06 10:32:11;;;;;;;10.93;5.70;;;;;;;;;;5130096;28;20031;-68
2021/12/06 10:36:39;;;;;;;11.00;6.70;;;;;;;;;;5110463;27;20957;-69
2021/12/06 10:39:07;;;;;;;12.48;6.65;;;;;;;;;;5110331;28;20062;-69
2021/12/06 10:41:35;;;;;;;9.40;5.55;;;;;;;;;;5110550;28;20028;-69
2021/12/06 10:44:04;;;;;;;10.43;6.43;;;;;;;;;;5107822;28;20024;-69
2021/12/06 10:46:31;;;;;;;12.88;7.97;;;;;;;;;;5107845;28;20028;-69
2021/12/06 10:50:10;;;;;;;20.05;11.50;;;;;;;;;;5150986;27;20408;-68
2021/12/06 10:52:36;;;;;;;44.50;24.85;;;;;;;;;;5162960;27;20026;-69
2021/12/06 10:55:04;;;;;;;16.65;11.48;;;;;;;;;;5172398;27;20488;-69
2021/12/06 10:58:49;;;;;;;14.75;8.10;;;;;;;;;;5125668;27;20116;-69
2021/12/06 11:05:27;;;;;;;7.82;3.88;;;;;;;;;;5130738;27;20309;-69
2021/12/06 11:07:58;;;;;;;10.15;4.82;;;;;;;;;;5109594;28;20115;-69
2021/12/06 11:10:25;;;;;;;11.98;5.43;;;;;;;;;;5110290;28;20026;-70
2021/12/06 11:13:11;;;;;;;9.48;3.83;;;;;;;;;;5109456;28;20012;-69
2021/12/06 11:15:50;;;;;;;9.68;3.95;;;;;;;;;;5091707;28;20028;-70
2021/12/06 11:18:28;;;;;;;12.30;5.97;;;;;;;;;;5110226;28;20426;-70
2021/12/06 11:20:55;;;;;;;11.07;4.80;;;;;;;;;;5110114;28;20024;-70
2021/12/06 11:23:21;;;;;;;14.05;7.97;;;;;;;;;;5109909;28;20028;-70
2021/12/06 11:26:01;;;;;;;10.88;6.35;;;;;;;;;;5110059;28;20032;-70
2021/12/06 11:28:29;;;;;;;11.50;4.30;;;;;;;;;;5094817;28;20016;-67
2021/12/06 11:33:25;;;;;;;7.50;3.10;;;;;;;;;;5094626;27;20404;-70
2021/12/06 11:35:52;;;;;;;7.78;3.72;;;;;;;;;;5088296;28;20098;-70
2021/12/06 11:38:19;;;;;;;7.75;3.78;;;;;;;;;;5087407;28;20056;-70
2021/12/06 11:41:20;;;;;;;7.82;3.72;;;;;;;;;;5067826;28;20383;-71
2021/12/06 11:43:47;;;;;;;10.02;3.63;;;;;;;;;;5069297;28;20044;-70
2021/12/06 11:46:13;;;;;;;10.05;4.72;;;;;;;;;;5068843;28;20033;-70
2021/12/06 11:50:17;;;;;;;13.50;6.63;;;;;;;;;;5110682;27;20892;-70
2021/12/06 11:52:49;;;;;;;10.98;4.88;;;;;;;;;;5110389;28;20024;-70
2021/12/06 11:58:05;;;;;;;14.77;6.07;;;;;;;;;;5108935;27;20389;-70
2021/12/06 12:01:55;;;;;;;7.10;3.47;;;;;;;;;;5106474;27;20400;-70
2021/12/06 12:05:48;;;;;;;13.23;4.80;;;;;;;;;;5107689;27;20380;-70
2021/12/06 12:08:18;;;;;;;11.93;6.03;;;;;;;;;;5108926;28;20046;-69
2021/12/06 12:13:25;;;;;;;8.38;5.15;;;;;;;;;;5110110;27;20397;-71
2021/12/06 12:18:03;;;;;;;12.70;6.80;;;;;;;;;;5110864;27;20397;-69
2021/12/06 12:20:30;;;;;;;16.30;9.95;;;;;;;;;;5110526;28;20032;-70
2021/12/06 12:23:00;;;;;;;15.52;8.98;;;;;;;;;;5110037;28;20484;-70
2021/12/06 12:25:34;;;;;;;14.82;9.23;;;;;;;;;;5111178;28;20077;-70
2021/12/06 12:30:35;;;;;;;35.75;18.17;;;;;;;;;;5109930;28;20472;-70
2021/12/06 12:33:28;;;;;;;88.05;41.20;;;;;;;;;;5091490;27;20936;-70
2021/12/06 12:35:59;;;;;;;106.45;48.42;;;;;;;;;;5092376;28;20128;-69
2021/12/06 12:39:38;;;;;;;97.30;45.20;;;;;;;;;;5109226;27;20384;-71
2021/12/06 12:42:06;;;;;;;74.85;41.28;;;;;;;;;;5110786;28;20027;-71
2021/12/06 12:44:47;;;;;;;70.43;39.88;;;;;;;;;;5109751;28;20468;-72
2021/12/06 12:48:44;;;;;;;61.25;37.05;;;;;;;;;;5107658;27;20454;-71
2021/12/06 12:52:41;;;;;;;31.85;19.08;;;;;;;;;;5110015;27;20876;-71
2021/12/06 12:55:25;;;;;;;31.65;20.30;;;;;;;;;;5111130;28;20032;-71
2021/12/06 12:59:26;;;;;;;21.05;13.38;;;;;;;;;;5108320;27;20804;-71
2021/12/06 13:02:12;;;;;;;34.58;22.35;;;;;;;;;;5107963;28;20054;-71
2021/12/06 13:06:30;;;;;;;18.67;11.82;;;;;;;;;;5109659;27;20450;-72
2021/12/06 13:09:20;;;;;;;18.30;12.45;;;;;;;;;;5109931;27;20393;-71
2021/12/06 13:12:17;;;;;;;16.10;10.68;;;;;;;;;;5109283;27;20454;-70
2021/12/06 13:14:48;;;;;;;15.50;9.05;;;;;;;;;;5109162;28;20024;-73
2021/12/06 13:18:36;;;;;;;16.58;10.25;;;;;;;;;;5110533;27;20385;-70
2021/12/06 13:21:22;;;;;;;16.15;9.43;;;;;;;;;;5105945;28;20081;-70
2021/12/06 13:23:49;;;;;;;14.77;9.55;;;;;;;;;;5098138;28;20032;-70
2021/12/06 13:29:03;;;;;;;28.67;15.93;;;;;;;;;;5069893;28;20399;-72
2021/12/06 13:31:29;;;;;;;38.42;22.77;;;;;;;;;;5069945;28;20032;-72
2021/12/06 13:33:56;;;;;;;37.88;24.08;;;;;;;;;;5070135;28;20024;-72
2021/12/06 13:36:42;;;;;;;81.25;49.75;;;;;;;;;;5069144;28;20028;-71
2021/12/06 13:39:26;;;;;;;85.32;52.97;;;;;;;;;;5069037;28;20507;-70
2021/12/06 13:43:10;;;;;;;65.35;42.58;;;;;;;;;;5111045;27;20380;-70
2021/12/06 13:45:38;;;;;;;37.13;27.02;;;;;;;;;;5107630;28;20491;-70
2021/12/06 13:48:15;;;;;;;44.58;27.85;;;;;;;;;;5109908;28;20020;-71
2021/12/06 13:50:43;;;;;;;49.13;37.92;;;;;;;;;;5110463;28;20047;-71
2021/12/06 13:54:12;;;;;;;34.55;20.63;;;;;;;;;;5130775;27;20112;-70
2021/12/06 13:58:05;;;;;;;33.08;18.42;;;;;;;;;;5111934;27;20397;-71
2021/12/06 14:00:42;;;;;;;26.45;16.83;;;;;;;;;;5111162;28;20056;-71
2021/12/06 14:03:12;;;;;;;24.95;15.38;;;;;;;;;;5111389;28;20044;-71
2021/12/06 14:05:41;;;;;;;21.33;13.15;;;;;;;;;;5111165;28;20032;-72
2021/12/06 14:08:57;;;;;;;25.70;15.63;;;;;;;;;;5111046;27;20484;-71
2021/12/06 14:11:24;;;;;;;22.27;13.40;;;;;;;;;;5111254;28;20069;-71
2021/12/06 14:13:51;;;;;;;23.10;14.88;;;;;;;;;;5111188;28;20062;-70
2021/12/06 14:16:18;;;;;;;27.67;16.17;;;;;;;;;;5110896;28;20024;-70
2021/12/06 14:18:44;;;;;;;31.08;18.35;;;;;;;;;;5110854;28;20028;-71
2021/12/06 14:21:10;;;;;;;38.15;22.23;;;;;;;;;;5110666;28;20030;-70
2021/12/06 14:23:37;;;;;;;42.70;23.15;;;;;;;;;;5111072;28;20024;-70
2021/12/06 14:26:43;;;;;;;32.25;19.35;;;;;;;;;;5111344;27;20908;-69
2021/12/06 14:29:16;;;;;;;26.73;15.10;;;;;;;;;;5110983;28;20105;-70
2021/12/06 14:31:44;;;;;;;39.85;22.02;;;;;;;;;;5111233;28;20468;-72
2021/12/06 14:34:10;;;;;;;31.33;20.45;;;;;;;;;;5111431;28;20027;-71
2021/12/06 14:36:36;;;;;;;21.98;13.60;;;;;;;;;;5110740;28;20460;-70
2021/12/06 14:39:11;;;;;;;21.80;15.07;;;;;;;;;;5109918;28;20029;-71
2021/12/06 14:41:49;;;;;;;33.58;20.23;;;;;;;;;;5111415;28;20023;-70
2021/12/06 14:44:28;;;;;;;31.02;21.10;;;;;;;;;;5110620;28;20453;-70
2021/12/06 14:46:55;;;;;;;61.38;31.88;;;;;;;;;;5111105;28;20103;-72
2021/12/06 14:51:18;;;;;;;40.42;23.98;;;;;;;;;;5091048;27;20440;-72
2021/12/06 14:54:03;;;;;;;32.58;22.50;;;;;;;;;;5090925;28;20028;-71
2021/12/06 14:57:14;;;;;;;41.17;26.27;;;;;;;;;;5090648;28;20020;-71
2021/12/06 14:59:17;;;;;;;30.20;20.40;;;;;;;;;;5086763;28;20036;-71
2021/12/06 15:01:43;;;;;;;30.08;19.65;;;;;;;;;;5090717;28;20027;-72
2021/12/06 15:04:17;;;;;;;29.67;17.42;;;;;;;;;;5090308;28;20024;-72
2021/12/06 15:06:43;;;;;;;26.67;17.65;;;;;;;;;;5088964;28;20495;-69
2021/12/06 15:09:12;;;;;;;33.25;22.48;;;;;;;;;;5088425;28;20372;-71
2021/12/06 15:11:38;;;;;;;47.63;29.95;;;;;;;;;;5089332;28;20647;-70
2021/12/06 15:14:07;;;;;;;49.15;31.65;;;;;;;;;;5089814;28;20149;-72
2021/12/06 15:16:33;;;;;;;44.30;29.67;;;;;;;;;;5088932;28;20528;-70
2021/12/06 15:18:59;;;;;;;61.50;42.92;;;;;;;;;;5088557;28;20099;-70
2021/12/06 15:21:28;;;;;;;47.53;31.33;;;;;;;;;;5087364;28;20044;-70
2021/12/06 15:23:57;;;;;;;38.53;26.35;;;;;;;;;;5088533;28;20059;-69
2021/12/06 15:26:28;;;;;;;31.67;21.48;;;;;;;;;;5089326;28;20021;-70
2021/12/06 15:28:55;;;;;;;24.30;15.98;;;;;;;;;;5090355;28;20036;-70
2021/12/06 15:31:26;;;;;;;23.23;15.20;;;;;;;;;;5089807;28;20055;-70
2021/12/06 15:33:52;;;;;;;28.20;19.30;;;;;;;;;;5090304;28;20506;-70
2021/12/06 15:36:20;;;;;;;23.50;17.85;;;;;;;;;;5090212;28;20482;-70
2021/12/06 15:38:55;;;;;;;21.48;14.20;;;;;;;;;;5089501;28;20021;-70
2021/12/06 15:41:27;;;;;;;45.15;31.17;;;;;;;;;;5089991;28;20025;-70
2021/12/06 15:44:04;;;;;;;48.95;33.45;;;;;;;;;;5090105;28;20025;-70